Time;durP1;ratioP1;P1;durP2;ratioP2;P2;SDS_P1;SDS_P2;PMS_P1;PMS_P2;Temp;Humidity;BMP_temperature;BMP_pressure;BME280_temperature;BME280_humidity;BME280_pressure;Samples;Min_cycle;Max_cycle;Signal;HPM_P1;HPM_P2
2023/09/28 00:04:21;;;;;;;10.25;9.25;;;;;;;19.96;75.73;100178.63;10350233;28;20133;-64
2023/09/28 00:09:22;;;;;;;9.93;9.02;;;;;;;19.96;75.96;100167.81;10349658;28;20567;-64
2023/09/28 00:14:23;;;;;;;9.85;9.05;;;;;;;19.85;75.94;100154.81;10348448;28;20124;-63
2023/09/28 00:19:26;;;;;;;10.68;9.55;;;;;;;19.79;75.78;100164.47;10349626;28;20200;-63
2023/09/28 00:24:28;;;;;;;10.57;9.48;;;;;;;19.74;76.60;100167.72;10350616;28;20045;-65
2023/09/28 00:29:30;;;;;;;11.70;10.63;;;;;;;19.74;76.48;100162.31;10347614;28;20080;-62
2023/09/28 00:34:32;;;;;;;10.80;9.75;;;;;;;19.75;77.08;100169.34;10350497;28;20092;-63
2023/09/28 00:39:33;;;;;;;9.57;8.68;;;;;;;19.65;76.98;100154.47;10347641;28;20133;-64
2023/09/28 00:44:34;;;;;;;11.75;10.63;;;;;;;19.72;76.69;100174.31;10347789;28;20192;-63
2023/09/28 00:49:36;;;;;;;10.32;9.32;;;;;;;19.66;76.10;100170.47;10345264;28;20338;-63
2023/09/28 00:54:38;;;;;;;11.05;10.05;;;;;;;19.54;76.21;100155.75;10347137;28;20418;-63
2023/09/28 00:59:40;;;;;;;10.48;9.43;;;;;;;19.61;76.34;100181.00;10331621;28;20052;-64
2023/09/28 01:04:42;;;;;;;10.32;9.20;;;;;;;19.53;76.02;100171.13;10329375;28;20076;-63
2023/09/28 01:09:43;;;;;;;12.18;9.80;;;;;;;19.43;75.62;100147.09;10302724;28;20136;-62
2023/09/28 01:14:47;;;;;;;9.85;8.85;;;;;;;19.38;76.25;100163.00;10308410;28;20141;-65
2023/09/28 01:19:49;;;;;;;9.75;8.82;;;;;;;19.36;76.41;100154.25;10301147;28;20626;-64
2023/09/28 01:24:50;;;;;;;10.45;9.45;;;;;;;19.31;76.52;100166.63;10304947;28;20049;-63
2023/09/28 01:29:52;;;;;;;9.38;8.45;;;;;;;19.22;77.20;100173.94;10304639;28;20050;-64
2023/09/28 01:34:53;;;;;;;9.52;8.63;;;;;;;19.30;76.53;100181.97;10301422;28;20182;-64
2023/09/28 01:39:55;;;;;;;10.38;9.43;;;;;;;19.22;76.61;100169.38;10304309;28;20208;-63
2023/09/28 01:44:56;;;;;;;9.57;8.63;;;;;;;19.14;76.74;100161.38;10309740;28;20125;-62
2023/09/28 01:50:00;;;;;;;10.60;8.85;;;;;;;19.17;76.80;100166.41;10306144;28;20177;-63
2023/09/28 01:55:02;;;;;;;9.15;8.25;;;;;;;19.12;77.34;100155.31;10304905;28;20611;-62
2023/09/28 02:00:14;;;;;;;9.35;8.40;;;;;;;19.06;76.59;100159.56;10306552;28;20099;-64
2023/09/28 02:05:17;;;;;;;8.15;7.45;;;;;;;19.11;75.84;100174.38;10311055;28;20137;-65
2023/09/28 02:10:19;;;;;;;10.43;7.32;;;;;;;19.05;76.37;100174.09;10304199;28;20257;-64
2023/09/28 02:15:22;;;;;;;7.70;7.00;;;;;;;19.12;76.72;100181.47;10305012;28;20059;-66
2023/09/28 02:20:24;;;;;;;8.15;7.35;;;;;;;19.10;76.82;100180.81;10311130;28;22082;-65
2023/09/28 02:25:29;;;;;;;9.63;7.97;;;;;;;18.99;75.49;100180.22;10303540;28;20155;-64
2023/09/28 02:30:31;;;;;;;12.30;9.38;;;;;;;18.98;76.52;100183.09;10302457;28;20543;-66
2023/09/28 02:35:33;;;;;;;11.35;9.40;;;;;;;19.05;76.34;100205.59;10300679;28;20500;-63
2023/09/28 02:40:36;;;;;;;9.57;8.25;;;;;;;19.04;76.09;100206.63;10301996;28;20046;-64
2023/09/28 02:45:37;;;;;;;8.85;6.45;;;;;;;18.99;75.96;100193.69;10299200;28;20092;-63
2023/09/28 02:50:39;;;;;;;7.35;6.75;;;;;;;18.98;75.54;100183.91;10304650;28;20065;-65
2023/09/28 02:55:40;;;;;;;6.88;6.28;;;;;;;18.91;76.09;100161.38;10303659;28;20058;-63
2023/09/28 03:00:42;;;;;;;7.95;7.25;;;;;;;18.87;75.55;100203.19;10314896;28;20054;-64
2023/09/28 03:05:43;;;;;;;8.75;7.85;;;;;;;18.77;77.15;100227.69;10306982;28;20049;-65
2023/09/28 03:10:45;;;;;;;8.02;6.85;;;;;;;18.83;77.48;100226.13;10303364;28;20065;-65
2023/09/28 03:15:46;;;;;;;10.07;6.97;;;;;;;18.85;77.43;100241.13;10306763;28;20058;-66
2023/09/28 03:20:48;;;;;;;7.28;6.03;;;;;;;18.84;76.18;100255.63;10316448;28;20054;-63
2023/09/28 03:25:50;;;;;;;8.57;7.18;;;;;;;18.86;77.62;100255.47;10311740;28;20053;-65
2023/09/28 03:30:53;;;;;;;7.28;6.57;;;;;;;18.69;76.32;100212.41;10303552;28;20184;-62
2023/09/28 03:35:55;;;;;;;6.82;6.18;;;;;;;18.84;76.00;100235.88;10311524;28;20129;-63
2023/09/28 03:40:56;;;;;;;9.18;6.50;;;;;;;18.84;76.81;100217.88;10308793;28;20062;-63
2023/09/28 03:45:58;;;;;;;10.57;8.27;;;;;;;18.79;76.36;100241.81;10316273;28;20051;-64
2023/09/28 03:51:00;;;;;;;8.15;7.40;;;;;;;18.75;77.09;100220.78;10313495;28;20092;-67
2023/09/28 03:56:02;;;;;;;8.85;8.13;;;;;;;18.65;77.36;100218.31;10311350;28;20458;-64
2023/09/28 04:01:07;;;;;;;7.93;7.15;;;;;;;18.72;77.60;100214.72;10308267;28;20046;-65
2023/09/28 04:06:08;;;;;;;8.30;7.50;;;;;;;18.63;76.96;100215.81;10309307;28;20199;-66
2023/09/28 04:11:10;;;;;;;9.32;7.47;;;;;;;18.57;77.75;100219.22;10308952;28;20595;-64
2023/09/28 04:16:11;;;;;;;8.18;6.95;;;;;;;18.58;77.52;100237.03;10307551;28;20046;-65
2023/09/28 04:21:13;;;;;;;9.02;7.82;;;;;;;18.58;77.86;100242.44;10312381;28;20428;-65
2023/09/28 04:26:15;;;;;;;9.40;7.75;;;;;;;18.47;77.65;100232.06;10308672;28;20120;-64
2023/09/28 04:31:17;;;;;;;7.75;7.05;;;;;;;18.43;77.40;100238.81;10322432;28;20061;-63
2023/09/28 04:36:18;;;;;;;8.95;8.05;;;;;;;18.43;77.27;100236.13;10308334;28;20337;-64
2023/09/28 04:41:19;;;;;;;8.77;7.63;;;;;;;18.35;77.18;100243.22;10307856;28;20129;-63
2023/09/28 04:46:21;;;;;;;9.60;7.70;;;;;;;18.20;77.60;100228.78;10315441;28;20361;-63
2023/09/28 04:51:23;;;;;;;9.23;7.40;;;;;;;18.22;77.03;100236.69;10307091;28;20571;-64
2023/09/28 04:56:24;;;;;;;9.13;7.97;;;;;;;18.24;77.43;100251.69;10311188;28;20046;-64
2023/09/28 05:01:26;;;;;;;8.55;7.75;;;;;;;18.19;78.07;100259.44;10305097;28;20105;-65
2023/09/28 05:06:27;;;;;;;9.55;7.78;;;;;;;18.09;78.20;100256.94;10290074;28;20053;-64
2023/09/28 05:11:29;;;;;;;8.85;8.05;;;;;;;18.18;77.36;100282.03;10303428;28;20065;-65
2023/09/28 05:16:30;;;;;;;8.52;7.70;;;;;;;18.10;78.66;100276.63;10294869;28;21765;-65
2023/09/28 05:21:34;;;;;;;8.48;7.68;;;;;;;18.14;77.97;100288.75;10300083;28;20673;-65
2023/09/28 05:26:36;;;;;;;10.93;8.70;;;;;;;18.07;78.79;100261.66;10304481;28;20054;-65
2023/09/28 05:31:39;;;;;;;9.43;8.60;;;;;;;18.17;78.08;100283.03;10300527;28;20640;-65
2023/09/28 05:36:41;;;;;;;10.50;9.25;;;;;;;18.00;78.71;100255.28;10299098;28;21068;-64
2023/09/28 05:41:42;;;;;;;12.25;8.90;;;;;;;18.11;78.02;100276.47;10343853;28;20122;-64
2023/09/28 05:46:43;;;;;;;10.27;9.02;;;;;;;18.16;78.28;100281.34;10343709;28;20210;-65
2023/09/28 05:51:45;;;;;;;11.75;9.80;;;;;;;18.18;78.08;100290.94;10342216;28;20136;-62
2023/09/28 05:56:46;;;;;;;11.63;8.70;;;;;;;18.15;78.23;100295.81;10341832;28;20049;-63
2023/09/28 06:01:48;;;;;;;12.68;9.50;;;;;;;18.20;78.97;100299.66;10329924;28;20549;-63
2023/09/28 06:06:50;;;;;;;12.57;9.95;;;;;;;18.23;78.81;100298.50;10328114;28;20179;-64
2023/09/28 06:11:52;;;;;;;12.27;9.15;;;;;;;18.13;78.49;100287.91;10325205;28;20556;-64
2023/09/28 06:16:54;;;;;;;14.77;10.63;;;;;;;18.14;77.54;100294.16;10335465;28;20046;-63
2023/09/28 06:21:56;;;;;;;13.30;9.93;;;;;;;18.15;79.68;100314.66;10338174;28;20114;-64
2023/09/28 06:26:58;;;;;;;11.68;10.10;;;;;;;18.20;78.77;100312.31;10337678;28;20073;-63
2023/09/28 06:32:01;;;;;;;12.40;10.60;;;;;;;18.19;78.77;100299.84;10341086;28;20057;-64
2023/09/28 06:37:03;;;;;;;;;;;;;;;18.38;80.83;100314.78;10339160;28;20460;-62
2023/09/28 06:42:04;;;;;;;11.60;10.45;;;;;;;18.57;79.49;100310.00;10321919;28;20449;-64
2023/09/28 06:47:26;;;;;;;13.35;10.45;;;;;;;18.69;77.82;100313.97;10337767;28;20053;-64
2023/09/28 06:52:38;;;;;;;21.48;11.10;;;;;;;18.85;77.96;100318.47;10326930;28;20050;-67
2023/09/28 06:57:40;;;;;;;15.38;11.07;;;;;;;19.00;77.77;100305.94;10338278;28;20537;-64
2023/09/28 07:02:46;;;;;;;12.35;11.23;;;;;;;19.08;77.14;100308.59;10340345;28;20077;-64
2023/09/28 07:07:48;;;;;;;13.43;12.05;;;;;;;19.31;77.69;100334.78;10322352;28;21325;-66
2023/09/28 07:12:50;;;;;;;24.40;13.90;;;;;;;19.47;77.46;100338.38;10337769;28;20190;-64
2023/09/28 07:17:51;;;;;;;17.30;13.57;;;;;;;19.59;77.20;100353.97;10335011;28;20052;-65
2023/09/28 07:22:53;;;;;;;15.10;12.50;;;;;;;19.61;73.89;100354.63;10322932;28;20060;-64
2023/09/28 07:27:56;;;;;;;13.55;12.32;;;;;;;19.69;74.41;100358.28;10333478;28;21414;-64
2023/09/28 07:32:57;;;;;;;13.45;12.00;;;;;;;19.72;71.87;100358.75;10326501;28;20061;-65
2023/09/28 07:37:59;;;;;;;11.57;10.05;;;;;;;19.72;73.83;100369.56;10333696;28;20057;-65
2023/09/28 07:43:00;;;;;;;11.77;10.68;;;;;;;19.84;70.58;100382.69;10337580;28;20157;-64
2023/09/28 07:48:02;;;;;;;12.35;11.18;;;;;;;19.95;70.20;100384.94;10332754;28;20211;-64
2023/09/28 07:53:03;;;;;;;12.20;10.93;;;;;;;19.93;69.34;100370.78;10337357;28;20164;-63
2023/09/28 07:58:05;;;;;;;14.00;11.05;;;;;;;19.90;69.12;100363.06;10324978;28;20485;-66
2023/09/28 08:03:26;;;;;;;10.32;9.43;;;;;;;20.04;69.57;100383.88;10331302;28;20049;-64
2023/09/28 08:08:28;;;;;;;10.60;7.90;;;;;;;20.12;69.80;100381.09;10330653;28;20064;-64
2023/09/28 08:13:29;;;;;;;10.55;9.45;;;;;;;20.40;69.66;100387.75;10345228;28;20087;-64
2023/09/28 08:18:31;;;;;;;10.32;9.20;;;;;;;20.54;68.30;100383.41;10343919;28;20102;-65
2023/09/28 08:23:32;;;;;;;9.43;8.45;;;;;;;20.62;67.72;100383.28;10343456;28;21645;-65
2023/09/28 08:28:34;;;;;;;10.45;9.45;;;;;;;20.71;66.84;100390.31;10341048;28;20436;-65
2023/09/28 08:33:36;;;;;;;8.63;7.45;;;;;;;20.82;67.44;100389.00;10343149;28;20077;-65
2023/09/28 08:38:37;;;;;;;8.25;7.45;;;;;;;21.05;66.61;100386.19;10343326;28;20053;-64
2023/09/28 08:43:47;;;;;;;9.73;7.65;;;;;;;21.24;65.75;100394.72;10340726;28;20531;-67
2023/09/28 08:48:51;;;;;;;8.55;7.75;;;;;;;21.44;65.62;100390.41;10343277;28;20057;-64
2023/09/28 08:53:52;;;;;;;7.95;7.25;;;;;;;21.55;65.50;100386.38;10341401;28;20053;-65
2023/09/28 08:58:56;;;;;;;7.70;7.00;;;;;;;21.62;64.15;100378.28;10339682;28;20056;-65
2023/09/28 09:03:59;;;;;;;9.68;6.78;;;;;;;21.78;63.69;100388.88;10345412;28;20470;-63
2023/09/28 09:09:06;;;;;;;7.65;6.85;;;;;;;21.98;63.53;100385.50;10344302;28;20045;-64
2023/09/28 09:14:08;;;;;;;7.25;6.43;;;;;;;22.37;62.90;100405.91;10346184;28;20057;-64
2023/09/28 09:19:14;;;;;;;6.65;6.00;;;;;;;22.66;61.41;100414.84;10340086;28;20065;-64
2023/09/28 09:24:18;;;;;;;6.25;5.65;;;;;;;22.87;61.23;100416.66;10324000;28;20057;-65
2023/09/28 09:29:20;;;;;;;5.82;5.22;;;;;;;23.16;60.89;100403.84;10341578;28;20163;-66
2023/09/28 09:34:21;;;;;;;6.60;5.75;;;;;;;23.46;59.28;100388.06;10327502;28;20068;-65
2023/09/28 09:39:30;;;;;;;5.72;4.90;;;;;;;23.65;59.05;100364.72;10328762;28;20068;-64
2023/09/28 09:44:32;;;;;;;7.53;4.93;;;;;;;23.94;58.23;100387.97;10330567;28;20291;-64
2023/09/28 09:49:33;;;;;;;5.00;4.53;;;;;;;24.18;57.15;100386.53;10341445;28;20057;-64
2023/09/28 09:54:35;;;;;;;7.57;5.72;;;;;;;24.46;56.11;100385.44;10326011;28;20049;-64
2023/09/28 09:59:43;;;;;;;5.65;5.10;;;;;;;24.75;54.92;100396.09;10326065;28;20495;-64
2023/09/28 10:04:45;;;;;;;5.25;4.28;;;;;;;25.11;54.91;100389.25;10339574;28;20168;-65
2023/09/28 10:09:48;;;;;;;5.93;3.95;;;;;;;25.26;54.12;100387.06;10340707;28;20127;-65
2023/09/28 10:14:49;;;;;;;4.40;3.53;;;;;;;25.40;53.17;100386.00;10345256;28;20057;-64
2023/09/28 10:19:56;;;;;;;7.47;4.13;;;;;;;25.65;52.99;100379.75;10344988;28;20053;-65
2023/09/28 10:24:58;;;;;;;5.57;4.20;;;;;;;25.85;50.89;100374.19;10340198;28;20076;-64
2023/09/28 10:30:19;;;;;;;7.40;3.75;;;;;;;25.99;50.68;100353.09;10339863;28;20614;-65
2023/09/28 10:35:28;;;;;;;5.07;3.80;;;;;;;26.50;50.36;100374.84;10297424;28;20192;-64
2023/09/28 10:40:33;;;;;;;4.20;3.75;;;;;;;26.52;48.40;100359.94;10298074;28;20053;-65
2023/09/28 10:45:50;;;;;;;4.78;3.63;;;;;;;26.56;46.72;100363.06;10297894;28;20326;-64
2023/09/28 10:50:53;;;;;;;6.82;4.20;;;;;;;26.62;46.87;100368.44;10334819;28;20112;-65
2023/09/28 10:55:54;;;;;;;5.00;3.53;;;;;;;26.87;48.00;100369.44;10335311;28;20120;-64
2023/09/28 11:00:56;;;;;;;5.32;3.10;;;;;;;27.07;47.16;100340.00;10321421;28;20621;-65
2023/09/28 11:05:59;;;;;;;4.80;3.33;;;;;;;27.69;47.18;100375.28;10336276;28;20068;-65
2023/09/28 11:11:03;;;;;;;3.85;2.70;;;;;;;28.05;44.48;100375.38;10334485;28;20288;-65
2023/09/28 11:16:05;;;;;;;5.53;3.08;;;;;;;28.45;43.38;100368.34;10297086;28;20072;-64
2023/09/28 11:21:07;;;;;;;2.93;2.60;;;;;;;28.92;43.53;100349.97;10292697;28;20418;-64
2023/09/28 11:26:10;;;;;;;4.67;2.80;;;;;;;29.39;42.35;100353.63;10294050;28;20049;-65
2023/09/28 11:31:13;;;;;;;5.05;2.90;;;;;;;29.76;42.77;100347.69;10293674;28;20177;-65
2023/09/28 11:36:22;;;;;;;4.45;2.58;;;;;;;29.75;40.41;100337.78;10297436;28;20590;-64
2023/09/28 11:41:24;;;;;;;3.45;2.40;;;;;;;29.48;41.44;100316.50;10299507;28;20128;-65
2023/09/28 11:46:27;;;;;;;3.28;2.67;;;;;;;29.22;42.63;100335.22;10304559;28;20061;-65
2023/09/28 11:51:33;;;;;;;2.72;2.53;;;;;;;28.92;43.23;100328.03;10306388;28;20139;-65
2023/09/28 11:56:35;;;;;;;4.68;3.10;;;;;;;29.87;41.25;100319.34;10306336;28;20073;-65
2023/09/28 12:01:36;;;;;;;4.35;2.50;;;;;;;30.84;39.57;100310.84;10305389;28;20074;-65
2023/09/28 12:06:39;;;;;;;4.73;2.30;;;;;;;31.42;35.98;100315.84;10307111;28;20409;-66
2023/09/28 12:11:41;;;;;;;3.58;2.00;;;;;;;31.90;35.94;100309.41;10308967;28;20078;-64
2023/09/28 12:16:43;;;;;;;5.20;2.13;;;;;;;32.50;35.30;100313.91;10306592;28;20473;-65
2023/09/28 12:21:50;;;;;;;5.03;2.22;;;;;;;32.69;33.52;100312.34;10301123;28;20048;-64
2023/09/28 12:26:54;;;;;;;3.53;2.13;;;;;;;33.08;34.21;100305.59;10302024;28;20366;-65
2023/09/28 12:31:58;;;;;;;4.97;2.53;;;;;;;33.69;31.38;100302.09;10306880;28;20097;-66
2023/09/28 12:36:59;;;;;;;2.85;1.90;;;;;;;33.55;31.78;100300.97;10303729;28;20102;-65
2023/09/28 12:42:01;;;;;;;2.60;1.80;;;;;;;33.93;32.59;100301.50;10307515;28;20076;-66
2023/09/28 12:47:04;;;;;;;3.95;2.22;;;;;;;33.88;31.21;100293.25;10303321;28;20057;-67
2023/09/28 12:52:06;;;;;;;4.75;1.95;;;;;;;34.08;30.98;100281.31;10307721;28;20057;-65
2023/09/28 12:57:08;;;;;;;4.05;2.17;;;;;;;34.32;30.70;100284.31;10301919;28;20133;-65
2023/09/28 13:02:09;;;;;;;3.83;1.77;;;;;;;34.12;32.57;100280.47;10305626;28;20060;-64
2023/09/28 13:07:11;;;;;;;3.67;2.05;;;;;;;34.46;31.41;100277.09;10303183;28;20046;-66
2023/09/28 13:12:12;;;;;;;4.47;2.10;;;;;;;34.48;30.95;100285.09;10303460;28;20507;-66
2023/09/28 13:17:16;;;;;;;2.75;2.45;;;;;;;34.39;31.03;100275.75;10298547;28;20687;-64
2023/09/28 13:22:17;;;;;;;3.63;2.20;;;;;;;34.16;31.62;100262.25;10338595;28;20068;-65
2023/09/28 13:27:20;;;;;;;3.15;1.77;;;;;;;34.04;30.84;100274.72;10336648;28;20583;-64
2023/09/28 13:32:23;;;;;;;4.57;2.20;;;;;;;33.61;32.15;100255.72;10331396;28;20128;-64
2023/09/28 13:37:25;;;;;;;3.97;2.35;;;;;;;33.26;32.00;100257.38;10329639;28;20558;-65
2023/09/28 13:42:27;;;;;;;2.80;1.90;;;;;;;32.75;32.81;100252.59;10369407;28;20107;-66
2023/09/28 13:47:29;;;;;;;2.78;1.65;;;;;;;33.63;31.28;100254.34;10317986;28;20131;-64
2023/09/28 13:52:31;;;;;;;4.28;2.25;;;;;;;33.39;31.41;100239.44;10301516;28;20054;-64
2023/09/28 13:57:33;;;;;;;3.92;1.95;;;;;;;33.63;30.92;100242.47;10298388;28;20528;-64
2023/09/28 14:02:35;;;;;;;5.10;2.20;;;;;;;32.61;32.35;100243.97;10298213;28;20053;-63
2023/09/28 14:07:37;;;;;;;5.13;2.15;;;;;;;32.08;34.08;100247.59;10298875;28;20064;-64
2023/09/28 14:12:39;;;;;;;;;;;;;;;31.45;35.51;100249.31;10299187;28;20060;-65
2023/09/28 14:17:40;;;;;;;4.88;2.67;;;;;;;31.09;36.02;100246.25;10300209;28;19929;-64
2023/09/28 14:22:44;;;;;;;5.28;2.42;;;;;;;30.65;36.54;100242.47;10299320;28;20142;-64
2023/09/28 14:27:47;;;;;;;2.50;2.30;;;;;;;30.39;38.52;100246.00;10293559;28;20552;-65
2023/09/28 14:32:49;;;;;;;2.70;2.50;;;;;;;30.09;38.50;100233.53;10301491;28;20049;-64
2023/09/28 14:37:51;;;;;;;4.45;2.33;;;;;;;29.70;38.06;100225.25;10340197;28;20465;-64
2023/09/28 14:42:52;;;;;;;4.77;2.13;;;;;;;29.42;38.17;100229.75;10326356;28;20395;-65
2023/09/28 14:47:54;;;;;;;3.97;2.33;;;;;;;29.00;38.78;100221.88;10350342;28;20314;-64
2023/09/28 14:52:55;;;;;;;3.33;2.80;;;;;;;28.83;39.40;100206.25;10345467;28;20560;-64
2023/09/28 14:57:57;;;;;;;4.03;2.00;;;;;;;28.79;40.17;100232.47;10345844;28;20474;-65
2023/09/28 15:02:58;;;;;;;4.90;2.50;;;;;;;28.54;40.08;100224.56;10342376;28;20065;-66
2023/09/28 15:08:00;;;;;;;2.97;2.28;;;;;;;28.32;39.92;100211.53;10342715;28;20066;-66
2023/09/28 15:13:02;;;;;;;3.80;1.63;;;;;;;28.16;41.14;100201.34;10300091;28;22229;-65
2023/09/28 15:18:04;;;;;;;6.20;1.97;;;;;;;28.07;40.64;100225.50;10300224;28;20529;-64
2023/09/28 15:23:05;;;;;;;5.20;2.75;;;;;;;27.88;41.07;100219.31;10301763;28;20054;-66
2023/09/28 15:28:10;;;;;;;3.37;1.83;;;;;;;27.78;41.28;100222.63;10298028;28;20273;-67
2023/09/28 15:33:11;;;;;;;3.33;1.90;;;;;;;27.67;41.77;100220.75;10294474;28;20066;-66
2023/09/28 15:38:13;;;;;;;2.73;2.30;;;;;;;27.41;41.94;100211.91;10302193;28;20050;-66
2023/09/28 15:43:14;;;;;;;2.90;2.50;;;;;;;27.38;42.31;100215.13;10295902;28;20401;-66
2023/09/28 15:48:16;;;;;;;4.00;2.47;;;;;;;27.24;43.56;100210.94;10300732;28;20127;-66
2023/09/28 15:53:17;;;;;;;4.00;2.13;;;;;;;27.09;43.48;100193.06;10301145;28;20223;-66
2023/09/28 15:58:19;;;;;;;4.60;2.92;;;;;;;27.03;44.11;100199.47;10302833;28;20165;-65
2023/09/28 16:03:21;;;;;;;2.15;1.85;;;;;;;26.93;44.44;100193.75;10304357;28;20371;-66
2023/09/28 16:08:22;;;;;;;3.70;2.60;;;;;;;26.91;44.42;100198.63;10299910;28;20064;-66
2023/09/28 16:13:24;;;;;;;3.97;2.22;;;;;;;26.80;45.29;100201.06;10301015;28;21075;-66
2023/09/28 16:18:25;;;;;;;5.25;2.58;;;;;;;26.69;45.38;100204.59;10301449;28;20132;-66
2023/09/28 16:23:27;;;;;;;5.97;3.15;;;;;;;26.53;45.59;100208.78;10301987;28;20077;-67
2023/09/28 16:28:28;;;;;;;4.60;3.05;;;;;;;26.45;46.07;100207.19;10297857;28;20054;-68
2023/09/28 16:33:29;;;;;;;6.15;2.50;;;;;;;26.40;46.03;100220.69;10301327;28;20199;-64
2023/09/28 16:38:31;;;;;;;4.03;2.30;;;;;;;26.34;46.15;100207.97;10302948;28;20069;-66
2023/09/28 16:43:32;;;;;;;3.53;2.47;;;;;;;26.04;47.21;100181.44;10299216;28;20046;-66
2023/09/28 16:48:36;;;;;;;3.40;2.50;;;;;;;26.15;47.19;100214.47;10301234;28;20172;-66
2023/09/28 16:53:37;;;;;;;5.45;3.30;;;;;;;26.10;48.22;100228.81;10299316;28;20065;-67
2023/09/28 16:58:41;;;;;;;3.80;2.92;;;;;;;26.00;48.69;100207.53;10301455;28;20121;-65
2023/09/28 17:03:42;;;;;;;5.50;3.22;;;;;;;25.85;48.80;100205.13;10300134;28;20053;-68
2023/09/28 17:08:48;;;;;;;6.05;4.13;;;;;;;25.82;49.72;100210.19;10301705;28;20222;-66
2023/09/28 17:13:49;;;;;;;5.15;4.00;;;;;;;25.72;50.15;100210.72;10297533;28;20401;-67
2023/09/28 17:18:51;;;;;;;5.07;3.42;;;;;;;25.59;51.02;100206.22;10301443;28;20050;-67
2023/09/28 17:23:52;;;;;;;4.75;3.95;;;;;;;25.53;51.68;100212.56;10298697;28;20084;-66
2023/09/28 17:28:54;;;;;;;7.85;4.72;;;;;;;25.37;51.86;100203.91;10295564;28;20515;-66
2023/09/28 17:33:56;;;;;;;6.53;4.53;;;;;;;25.31;52.86;100209.38;10299706;28;20065;-67
2023/09/28 17:38:57;;;;;;;8.80;5.43;;;;;;;25.23;52.67;100213.19;10298803;28;20069;-66
2023/09/28 17:43:59;;;;;;;9.73;5.78;;;;;;;25.14;53.54;100217.25;10298834;28;20141;-66
2023/09/28 17:49:01;;;;;;;7.20;5.95;;;;;;;25.05;53.82;100222.13;10300337;28;20058;-65
2023/09/28 17:54:03;;;;;;;7.75;5.93;;;;;;;24.95;54.60;100208.16;10299322;28;20061;-67
2023/09/28 17:59:07;;;;;;;8.65;7.00;;;;;;;24.87;54.75;100217.41;10298754;28;20204;-66
2023/09/28 18:04:09;;;;;;;7.80;7.07;;;;;;;24.78;55.55;100222.28;10344115;28;20053;-67
2023/09/28 18:09:10;;;;;;;8.18;6.13;;;;;;;24.72;55.75;100220.44;10320528;28;20585;-66
2023/09/28 18:14:12;;;;;;;10.40;8.70;;;;;;;24.66;55.97;100230.28;10337963;28;20135;-67
2023/09/28 18:19:14;;;;;;;11.48;10.27;;;;;;;24.59;56.35;100251.28;10329851;28;20053;-66
2023/09/28 18:24:15;;;;;;;12.50;11.20;;;;;;;24.50;56.69;100245.22;10326459;28;20527;-67
2023/09/28 18:29:16;;;;;;;13.77;12.38;;;;;;;24.43;57.06;100252.56;10341014;28;20174;-67
2023/09/28 18:34:18;;;;;;;12.82;11.55;;;;;;;24.29;56.63;100245.47;10344459;28;20049;-67
2023/09/28 18:39:19;;;;;;;14.98;13.48;;;;;;;24.28;57.96;100260.16;10346552;28;20056;-67
2023/09/28 18:44:21;;;;;;;14.52;13.02;;;;;;;24.18;57.57;100276.91;10344294;28;20044;-66
2023/09/28 18:49:22;;;;;;;13.73;11.50;;;;;;;24.02;58.07;100261.03;10341110;28;20065;-66
2023/09/28 18:54:24;;;;;;;11.95;10.60;;;;;;;24.05;58.92;100274.19;10339824;28;20397;-67
2023/09/28 18:59:25;;;;;;;10.88;9.77;;;;;;;23.99;58.43;100273.19;10327968;28;20049;-65
2023/09/28 19:04:30;;;;;;;9.98;8.98;;;;;;;23.93;59.46;100274.00;10328815;28;20056;-68
2023/09/28 19:09:36;;;;;;;10.55;9.05;;;;;;;23.85;58.51;100276.91;10345174;28;20381;-67
2023/09/28 19:14:39;;;;;;;11.90;10.32;;;;;;;23.72;59.67;100275.03;10342842;28;20053;-66
2023/09/28 19:19:41;;;;;;;10.95;9.85;;;;;;;23.72;60.29;100284.03;10339788;28;20049;-67
2023/09/28 19:24:43;;;;;;;13.30;9.80;;;;;;;23.58;60.33;100283.19;10338216;28;20786;-66
2023/09/28 19:29:44;;;;;;;11.13;9.98;;;;;;;23.58;60.77;100290.50;10338536;28;20427;-67
2023/09/28 19:34:46;;;;;;;12.52;8.95;;;;;;;23.50;61.74;100277.97;10325344;28;20057;-66
2023/09/28 19:39:47;;;;;;;12.32;9.05;;;;;;;23.40;61.52;100277.53;10324768;28;20058;-68
2023/09/28 19:44:49;;;;;;;8.73;7.10;;;;;;;23.34;61.57;100279.19;10327980;28;21032;-68
2023/09/28 19:49:51;;;;;;;11.57;7.30;;;;;;;23.33;61.47;100284.84;10343525;28;20159;-69
2023/09/28 19:54:53;;;;;;;8.65;6.70;;;;;;;23.24;61.57;100285.03;10338648;28;20057;-67
2023/09/28 19:59:54;;;;;;;10.15;7.03;;;;;;;23.27;62.81;100298.22;10332225;28;20502;-67
2023/09/28 20:04:56;;;;;;;7.70;5.03;;;;;;;23.24;62.69;100303.19;10346801;28;20124;-72
2023/09/28 20:09:58;;;;;;;7.05;5.55;;;;;;;23.20;63.02;100296.53;10332917;28;20342;-69
2023/09/28 20:15:00;;;;;;;7.30;5.40;;;;;;;23.15;63.15;100294.44;10349252;28;20519;-68
2023/09/28 20:20:05;;;;;;;5.63;5.10;;;;;;;23.08;63.75;100293.53;10350163;28;20057;-66
2023/09/28 20:25:07;;;;;;;8.18;5.75;;;;;;;22.95;63.52;100278.91;10329664;28;20133;-67
2023/09/28 20:30:09;;;;;;;8.77;6.28;;;;;;;22.90;64.20;100275.94;10343510;28;20065;-66
2023/09/28 20:35:10;;;;;;;7.53;6.53;;;;;;;22.87;64.14;100281.78;10348516;28;20045;-66
2023/09/28 20:40:12;;;;;;;7.82;5.55;;;;;;;22.89;64.26;100300.56;10349402;28;20145;-67
2023/09/28 20:45:13;;;;;;;5.88;5.28;;;;;;;22.84;64.95;100298.47;10346260;28;20049;-67
2023/09/28 20:50:15;;;;;;;7.85;5.50;;;;;;;22.81;64.81;100301.59;10344669;28;21412;-66
2023/09/28 20:55:16;;;;;;;7.30;5.65;;;;;;;22.72;65.20;100289.25;10341471;28;20471;-68
2023/09/28 21:00:18;;;;;;;7.65;5.50;;;;;;;22.71;65.78;100293.00;10341033;28;20139;-67
2023/09/28 21:05:20;;;;;;;6.63;5.47;;;;;;;22.62;66.24;100284.19;10343140;28;20092;-67
2023/09/28 21:10:22;;;;;;;7.30;6.05;;;;;;;22.70;67.18;100291.31;10344913;28;20052;-67
2023/09/28 21:15:23;;;;;;;6.97;6.28;;;;;;;22.68;67.21;100285.25;10341670;28;20057;-66
2023/09/28 21:20:25;;;;;;;6.07;5.57;;;;;;;22.62;67.57;100283.34;10340304;28;20106;-68
2023/09/28 21:25:27;;;;;;;7.15;6.45;;;;;;;22.56;67.67;100285.84;10329711;28;20335;-68
2023/09/28 21:30:28;;;;;;;6.43;5.75;;;;;;;22.32;67.68;100256.50;10344893;28;20258;-66
2023/09/28 21:35:29;;;;;;;7.57;5.65;;;;;;;22.44;67.61;100292.84;10341845;28;20065;-65
2023/09/28 21:40:31;;;;;;;8.00;6.15;;;;;;;22.37;68.22;100286.59;10346317;28;20053;-65
2023/09/28 21:45:33;;;;;;;5.57;4.97;;;;;;;22.35;68.44;100294.06;10343947;28;20390;-66
2023/09/28 21:50:34;;;;;;;6.15;5.55;;;;;;;22.24;68.16;100295.44;10337878;28;20053;-64
2023/09/28 21:55:35;;;;;;;6.35;5.47;;;;;;;22.24;69.18;100309.81;10347604;28;20049;-65
2023/09/28 22:00:39;;;;;;;7.90;5.50;;;;;;;22.09;68.89;100289.31;10340546;28;20046;-65
2023/09/28 22:05:41;;;;;;;6.32;5.70;;;;;;;22.11;69.70;100304.31;10340181;28;20567;-65
2023/09/28 22:10:42;;;;;;;8.65;5.80;;;;;;;22.06;69.85;100299.47;10345659;28;20049;-63
2023/09/28 22:15:45;;;;;;;8.80;6.20;;;;;;;21.98;69.77;100299.66;10342749;28;20365;-65
2023/09/28 22:20:46;;;;;;;5.45;4.78;;;;;;;21.98;70.28;100305.06;10344547;28;20134;-67
2023/09/28 22:25:51;;;;;;;5.93;5.13;;;;;;;21.94;70.39;100311.09;10318097;28;20108;-63
2023/09/28 22:30:52;;;;;;;8.02;5.85;;;;;;;21.76;70.56;100293.44;10344009;28;20045;-66
2023/09/28 22:35:54;;;;;;;10.13;6.40;;;;;;;21.66;70.38;100295.63;10340375;28;20040;-64
2023/09/28 22:40:55;;;;;;;8.60;6.43;;;;;;;21.68;69.81;100293.59;10335834;28;20103;-65
2023/09/28 22:45:57;;;;;;;10.77;5.78;;;;;;;21.66;70.85;100298.34;10342560;28;20808;-66
2023/09/28 22:50:58;;;;;;;8.25;6.20;;;;;;;21.60;70.80;100286.41;10342538;28;20060;-66
2023/09/28 22:56:00;;;;;;;5.68;5.18;;;;;;;21.69;71.18;100297.94;10333010;28;20057;-66
2023/09/28 23:01:02;;;;;;;8.55;5.57;;;;;;;21.47;71.53;100276.28;10343098;28;20584;-63
2023/09/28 23:06:07;;;;;;;7.33;5.57;;;;;;;21.60;71.84;100302.66;10342655;28;20053;-64